createdAt,value
2023-10-27T00:01:35.300Z,11.90
2023-10-27T00:04:02.630Z,11.90
2023-10-27T00:06:34.183Z,11.90
2023-10-27T00:09:05.299Z,11.80
2023-10-27T00:11:38.381Z,11.80
2023-10-27T00:14:09.838Z,11.80
2023-10-27T00:16:37.416Z,11.80
2023-10-27T00:19:04.538Z,11.80
2023-10-27T00:21:34.510Z,11.70
2023-10-27T00:24:01.823Z,11.80
2023-10-27T00:26:41.638Z,11.70
2023-10-27T00:30:28.523Z,11.70
2023-10-27T00:32:56.966Z,11.80
2023-10-27T00:35:25.051Z,11.80
2023-10-27T00:38:01.465Z,11.80
2023-10-27T00:40:29.788Z,11.80
2023-10-27T00:43:01.542Z,11.80
2023-10-27T00:45:34.486Z,11.80
2023-10-27T00:48:04.099Z,11.80
2023-10-27T00:50:31.988Z,11.80
2023-10-27T00:53:00.069Z,11.80
2023-10-27T00:55:32.027Z,11.80
2023-10-27T00:58:01.369Z,11.80
2023-10-27T01:00:29.607Z,11.80
2023-10-27T01:02:58.080Z,11.80
2023-10-27T01:05:33.919Z,11.80
2023-10-27T01:08:14.269Z,11.70
2023-10-27T01:10:54.966Z,11.70
2023-10-27T01:13:29.920Z,11.70
2023-10-27T01:15:58.904Z,11.70
2023-10-27T01:18:30.575Z,11.70
2023-10-27T01:21:05.012Z,11.70
2023-10-27T01:23:40.847Z,11.70
2023-10-27T01:26:08.208Z,11.70
2023-10-27T01:28:35.307Z,11.70
2023-10-27T01:33:54.830Z,11.60
2023-10-27T01:36:21.867Z,11.70
2023-10-27T01:38:49.075Z,11.70
2023-10-27T01:41:16.047Z,11.70
2023-10-27T01:43:44.464Z,11.70
2023-10-27T01:46:11.378Z,11.70
2023-10-27T01:48:38.958Z,11.70
2023-10-27T01:51:07.436Z,11.60
2023-10-27T01:53:39.613Z,11.60
2023-10-27T01:56:07.060Z,11.60
2023-10-27T01:58:57.693Z,11.60
2023-10-27T02:01:30.198Z,11.60
2023-10-27T02:03:57.941Z,11.50
2023-10-27T02:09:32.049Z,11.40
2023-10-27T02:12:00.533Z,11.40
2023-10-27T02:14:27.660Z,11.40
2023-10-27T02:16:56.832Z,11.40
2023-10-27T02:19:26.533Z,11.40
2023-10-27T02:24:41.791Z,11.40
2023-10-27T02:27:11.638Z,11.40
2023-10-27T02:29:39.421Z,11.40
2023-10-27T02:32:07.072Z,11.40
2023-10-27T02:34:33.986Z,11.40
2023-10-27T02:37:01.027Z,11.40
2023-10-27T02:39:30.072Z,11.40
2023-10-27T02:42:01.936Z,11.30
2023-10-27T02:44:35.444Z,11.40
2023-10-27T02:49:44.752Z,11.30
2023-10-27T02:52:17.808Z,11.30
2023-10-27T02:54:47.341Z,11.30
2023-10-27T02:59:57.763Z,11.30
2023-10-27T03:02:25.626Z,11.40
2023-10-27T03:04:56.181Z,11.40
2023-10-27T03:07:24.105Z,11.40
2023-10-27T03:09:53.968Z,11.30
2023-10-27T03:12:24.397Z,11.40
2023-10-27T03:14:52.800Z,11.40
2023-10-27T03:17:19.733Z,11.30
2023-10-27T03:19:51.610Z,11.30
2023-10-27T03:22:20.744Z,11.30
2023-10-27T03:24:51.085Z,11.30
2023-10-27T03:27:24.020Z,11.30
2023-10-27T03:30:00.296Z,11.30
2023-10-27T03:32:32.293Z,11.30
2023-10-27T03:35:03.669Z,11.30
2023-10-27T03:37:36.695Z,11.30
2023-10-27T03:40:10.165Z,11.20
2023-10-27T03:42:52.215Z,11.20
2023-10-27T03:45:27.574Z,11.30
2023-10-27T03:48:02.327Z,11.20
2023-10-27T03:50:32.586Z,11.20
2023-10-27T03:53:07.211Z,11.20
2023-10-27T03:55:46.440Z,11.30
2023-10-27T03:58:27.390Z,11.30
2023-10-27T04:01:14.985Z,11.40
2023-10-27T04:03:42.152Z,11.40
2023-10-27T04:06:12.277Z,11.40
2023-10-27T04:08:39.511Z,11.40
2023-10-27T04:11:10.800Z,11.50
2023-10-27T04:13:39.471Z,11.50
2023-10-27T04:16:07.894Z,11.50
2023-10-27T04:18:35.118Z,11.50
2023-10-27T04:21:04.361Z,11.50
2023-10-27T04:23:35.974Z,11.40
2023-10-27T04:26:03.109Z,11.50
2023-10-27T04:28:30.672Z,11.40
2023-10-27T04:30:57.570Z,11.50
2023-10-27T04:33:26.585Z,11.40
2023-10-27T04:35:53.765Z,11.50
2023-10-27T04:38:20.790Z,11.40
2023-10-27T04:40:47.816Z,11.40
2023-10-27T04:43:15.218Z,11.30
2023-10-27T04:45:44.974Z,11.40
2023-10-27T04:48:16.204Z,11.40
2023-10-27T04:51:06.037Z,11.40
2023-10-27T04:54:02.284Z,11.30
2023-10-27T04:56:35.696Z,11.30
2023-10-27T04:59:20.010Z,11.20
2023-10-27T05:02:11.093Z,11.20
2023-10-27T05:04:39.471Z,11.20
2023-10-27T05:07:08.371Z,11.20
2023-10-27T05:09:39.640Z,11.20
2023-10-27T05:15:55.693Z,11.20
2023-10-27T05:18:27.387Z,11.10
2023-10-27T05:21:01.956Z,11.20
2023-10-27T05:23:31.340Z,11.10
2023-10-27T05:26:01.143Z,11.10
2023-10-27T05:28:29.458Z,11.10
2023-10-27T05:31:05.636Z,11.00
2023-10-27T05:33:40.647Z,10.90
2023-10-27T05:36:19.709Z,10.90
2023-10-27T05:38:49.135Z,10.90
2023-10-27T05:41:17.200Z,10.90
2023-10-27T05:43:50.121Z,11.00
2023-10-27T05:46:20.664Z,10.90
2023-10-27T05:48:54.286Z,10.80
2023-10-27T05:51:23.471Z,10.90
2023-10-27T05:53:50.405Z,11.00
2023-10-27T05:56:17.322Z,11.00
2023-10-27T05:58:44.385Z,11.00
2023-10-27T06:01:11.320Z,11.00
2023-10-27T06:03:38.738Z,10.90
2023-10-27T06:06:06.420Z,11.00
2023-10-27T06:08:51.695Z,11.10
2023-10-27T06:11:21.569Z,11.10
2023-10-27T06:13:55.759Z,11.10
2023-10-27T06:16:28.108Z,11.20
2023-10-27T06:18:59.436Z,11.20
2023-10-27T06:21:30.803Z,11.30
2023-10-27T06:24:02.138Z,11.20
2023-10-27T06:26:39.281Z,11.20
2023-10-27T06:29:09.176Z,11.10
2023-10-27T06:31:40.275Z,11.10
2023-10-27T06:34:09.717Z,11.10
2023-10-27T06:36:47.653Z,11.00
2023-10-27T06:39:15.261Z,11.00
2023-10-27T06:42:09.170Z,11.10
2023-10-27T06:44:42.626Z,11.10
2023-10-27T06:47:10.535Z,11.20
2023-10-27T06:49:40.042Z,11.20
2023-10-27T06:52:07.494Z,11.30
2023-10-27T06:54:34.738Z,11.20
2023-10-27T06:57:04.094Z,11.30
2023-10-27T06:59:37.643Z,11.30
2023-10-27T07:02:18.989Z,11.20
2023-10-27T07:04:46.670Z,11.40
2023-10-27T07:09:55.370Z,11.60
2023-10-27T07:12:24.808Z,11.60
2023-10-27T07:14:57.332Z,11.70
2023-10-27T07:17:24.443Z,11.70
2023-10-27T07:19:54.216Z,11.70
2023-10-27T07:22:23.208Z,11.80
2023-10-27T07:24:55.680Z,11.80
2023-10-27T07:27:29.792Z,11.80
2023-10-27T07:30:01.970Z,11.90
2023-10-27T07:32:31.434Z,11.90
2023-10-27T07:34:59.794Z,12.00
2023-10-27T07:37:29.827Z,11.90
2023-10-27T07:39:57.306Z,11.90
2023-10-27T07:42:24.358Z,11.90
2023-10-27T07:44:51.677Z,12.00
2023-10-27T07:47:18.919Z,12.00
2023-10-27T07:49:45.961Z,12.10
2023-10-27T07:52:12.968Z,12.00
2023-10-27T07:54:40.020Z,12.20
2023-10-27T07:57:07.011Z,12.30
2023-10-27T07:59:34.380Z,12.30
2023-10-27T08:02:02.582Z,12.30
2023-10-27T08:04:34.250Z,12.40
2023-10-27T08:07:04.389Z,12.30
2023-10-27T08:09:32.451Z,12.20
2023-10-27T08:11:59.894Z,12.00
2023-10-27T08:14:27.576Z,12.00
2023-10-27T08:16:57.446Z,12.00
2023-10-27T08:19:24.756Z,12.00
2023-10-27T08:21:54.976Z,12.00
2023-10-27T08:24:23.140Z,12.10
2023-10-27T08:26:53.032Z,12.20
2023-10-27T08:29:20.661Z,12.20
2023-10-27T08:31:47.661Z,12.10
2023-10-27T08:34:18.611Z,12.20
2023-10-27T08:36:46.886Z,12.20
2023-10-27T08:39:13.940Z,12.20
2023-10-27T08:41:42.061Z,12.10
2023-10-27T08:44:24.740Z,12.20
2023-10-27T08:46:54.739Z,12.20
2023-10-27T08:49:22.517Z,12.20
2023-10-27T08:51:49.781Z,12.20
2023-10-27T08:54:18.169Z,12.40
2023-10-27T08:56:45.203Z,12.20
2023-10-27T08:59:12.178Z,12.00
2023-10-27T09:01:39.323Z,12.00
2023-10-27T09:04:12.811Z,11.90
2023-10-27T09:06:41.575Z,11.80
2023-10-27T09:09:12.371Z,11.80
2023-10-27T09:11:48.620Z,11.70
2023-10-27T09:14:38.044Z,11.90
2023-10-27T09:17:08.999Z,12.10
2023-10-27T09:19:36.466Z,12.10
2023-10-27T09:22:06.646Z,12.30
2023-10-27T09:24:34.080Z,12.00
2023-10-27T09:27:01.867Z,11.90
2023-10-27T09:29:40.317Z,11.90
2023-10-27T09:32:25.153Z,12.00
2023-10-27T09:35:15.923Z,12.00
2023-10-27T09:37:45.410Z,11.90
2023-10-27T09:40:14.480Z,11.90
2023-10-27T09:42:42.525Z,11.90
2023-10-27T09:45:15.424Z,11.90
2023-10-27T09:47:42.903Z,11.80
2023-10-27T09:50:25.518Z,11.80
2023-10-27T09:52:57.505Z,11.70
2023-10-27T09:55:26.174Z,11.90
2023-10-27T09:57:53.433Z,11.80
2023-10-27T10:00:23.603Z,11.70
2023-10-27T10:02:52.543Z,11.70
2023-10-27T10:05:19.709Z,11.70
2023-10-27T10:07:53.836Z,11.90
2023-10-27T10:10:30.914Z,11.90
2023-10-27T10:13:07.041Z,11.90
2023-10-27T10:15:40.247Z,12.00
2023-10-27T10:18:27.166Z,12.10
2023-10-27T10:20:57.743Z,12.10
2023-10-27T10:23:52.180Z,12.00
2023-10-27T10:26:19.311Z,12.00
2023-10-27T10:28:50.241Z,12.10
2023-10-27T10:31:19.980Z,12.10
2023-10-27T10:33:47.376Z,12.10
2023-10-27T10:36:23.664Z,12.00
2023-10-27T10:39:11.619Z,12.20
2023-10-27T10:42:02.203Z,12.10
2023-10-27T10:44:30.645Z,12.10
2023-10-27T10:46:58.024Z,12.10
2023-10-27T10:49:30.629Z,12.10
2023-10-27T10:51:58.887Z,12.20
2023-10-27T10:54:30.856Z,12.20
2023-10-27T10:57:05.929Z,12.10
2023-10-27T10:59:39.478Z,12.10
2023-10-27T11:02:09.573Z,12.30
2023-10-27T11:04:42.164Z,12.40
2023-10-27T11:07:09.867Z,12.40
2023-10-27T11:09:58.591Z,12.40
2023-10-27T11:12:27.317Z,12.30
2023-10-27T11:14:56.412Z,12.40
2023-10-27T11:17:23.365Z,12.40
2023-10-27T11:19:55.032Z,12.40
2023-10-27T11:22:26.499Z,12.40
2023-10-27T11:24:53.905Z,12.40
2023-10-27T11:27:29.124Z,12.40
2023-10-27T11:30:03.503Z,12.50
2023-10-27T11:32:32.482Z,12.70
2023-10-27T11:34:59.742Z,12.70
2023-10-27T11:37:30.421Z,12.80
2023-10-27T11:40:05.342Z,12.90
2023-10-27T11:42:34.104Z,13.00
2023-10-27T11:45:01.565Z,13.10
2023-10-27T11:47:28.768Z,13.20
2023-10-27T11:49:56.962Z,13.30
2023-10-27T11:52:24.046Z,13.20
2023-10-27T11:54:51.132Z,13.30
2023-10-27T11:57:19.347Z,13.10
2023-10-27T11:59:51.415Z,12.90
2023-10-27T12:02:19.884Z,12.70
2023-10-27T12:04:47.597Z,12.70
2023-10-27T12:07:25.004Z,12.50
2023-10-27T12:09:52.490Z,12.50
2023-10-27T12:12:23.415Z,12.50
2023-10-27T12:14:50.973Z,12.60
2023-10-27T12:17:17.996Z,12.70
2023-10-27T12:19:46.095Z,12.80
2023-10-27T12:22:13.223Z,12.80
2023-10-27T12:24:40.818Z,12.90
2023-10-27T12:27:10.569Z,13.00
2023-10-27T12:29:40.701Z,13.10
2023-10-27T12:32:13.451Z,13.10
2023-10-27T12:34:48.371Z,13.10
2023-10-27T12:37:17.158Z,13.00
2023-10-27T12:39:45.800Z,13.10
2023-10-27T12:42:12.904Z,13.10
2023-10-27T12:44:41.452Z,13.10
2023-10-27T12:47:11.626Z,13.10
2023-10-27T12:49:41.938Z,13.10
2023-10-27T12:52:10.176Z,13.10
2023-10-27T12:54:43.108Z,13.10
2023-10-27T12:57:10.702Z,13.10
2023-10-27T12:59:40.493Z,13.00
2023-10-27T13:02:07.558Z,13.00
2023-10-27T13:04:35.112Z,13.10
2023-10-27T13:07:02.754Z,13.20
2023-10-27T13:09:32.632Z,13.20
2023-10-27T13:12:00.521Z,13.20
2023-10-27T13:14:31.779Z,13.30
2023-10-27T13:17:01.645Z,13.30
2023-10-27T13:19:30.159Z,13.30
2023-10-27T13:21:59.975Z,13.30
2023-10-27T13:24:27.608Z,13.20
2023-10-27T13:27:27.563Z,13.20
2023-10-27T13:30:05.545Z,13.30
2023-10-27T13:32:37.768Z,13.30
2023-10-27T13:35:07.577Z,13.30
2023-10-27T13:37:35.180Z,13.20
2023-10-27T13:40:08.645Z,13.20
2023-10-27T13:42:36.681Z,13.20
2023-10-27T13:45:04.935Z,13.20
2023-10-27T13:47:33.064Z,13.20
2023-10-27T13:50:00.531Z,13.20
2023-10-27T13:52:28.057Z,13.20
2023-10-27T13:54:58.315Z,13.20
2023-10-27T13:57:25.368Z,13.10
2023-10-27T13:59:53.545Z,13.10
2023-10-27T14:02:21.696Z,13.10
2023-10-27T14:04:49.190Z,13.10
2023-10-27T14:07:17.724Z,13.10
2023-10-27T14:09:45.859Z,13.10
2023-10-27T14:12:12.994Z,13.10
2023-10-27T14:14:40.408Z,13.00
2023-10-27T14:17:09.221Z,13.10
2023-10-27T14:19:40.647Z,13.00
2023-10-27T14:22:07.725Z,13.00
2023-10-27T14:24:34.782Z,13.00
2023-10-27T14:27:03.648Z,13.00
2023-10-27T14:29:40.282Z,12.90
2023-10-27T14:32:07.845Z,12.90
2023-10-27T14:34:40.991Z,12.80
2023-10-27T14:37:09.687Z,12.80
2023-10-27T14:39:42.344Z,12.80
2023-10-27T14:42:12.473Z,12.70
2023-10-27T14:44:39.688Z,12.60
2023-10-27T14:47:06.693Z,12.60
2023-10-27T14:49:33.974Z,12.50
2023-10-27T14:52:01.264Z,12.30
2023-10-27T14:54:28.811Z,12.30
2023-10-27T14:57:05.466Z,12.30
2023-10-27T14:59:32.553Z,12.20
2023-10-27T15:01:59.564Z,12.20
2023-10-27T15:04:26.948Z,12.20
2023-10-27T15:06:54.333Z,12.30
2023-10-27T15:09:23.227Z,12.40
2023-10-27T15:11:50.329Z,12.40
2023-10-27T15:14:17.695Z,12.30
2023-10-27T15:16:48.019Z,12.40
2023-10-27T15:19:19.442Z,12.20
2023-10-27T15:21:49.378Z,12.10
2023-10-27T15:24:19.013Z,12.00
2023-10-27T15:26:49.140Z,12.00
2023-10-27T15:29:16.921Z,12.00
2023-10-27T15:31:47.585Z,12.00
2023-10-27T15:34:18.352Z,12.00
2023-10-27T15:36:45.571Z,12.00
2023-10-27T15:39:18.269Z,12.10
2023-10-27T15:41:47.905Z,12.00
2023-10-27T15:44:16.409Z,12.00
2023-10-27T15:46:44.339Z,12.00
2023-10-27T15:49:15.066Z,12.10
2023-10-27T15:51:44.546Z,12.00
2023-10-27T15:54:12.556Z,12.00
2023-10-27T15:56:42.897Z,12.00
2023-10-27T15:59:19.076Z,11.90
2023-10-27T16:01:47.087Z,11.80
2023-10-27T16:04:16.860Z,11.70
2023-10-27T16:06:50.004Z,11.60
2023-10-27T16:09:39.769Z,11.60
2023-10-27T16:12:10.687Z,11.60
2023-10-27T16:14:38.818Z,11.70
2023-10-27T16:17:19.240Z,11.60
2023-10-27T16:19:46.617Z,11.50
2023-10-27T16:22:13.852Z,11.60
2023-10-27T16:24:42.312Z,11.60
2023-10-27T16:27:15.771Z,11.50
2023-10-27T16:29:48.262Z,11.40
2023-10-27T16:32:16.051Z,11.50
2023-10-27T16:34:43.103Z,11.50
2023-10-27T16:37:12.166Z,11.30
2023-10-27T16:39:40.306Z,11.30
2023-10-27T16:42:08.522Z,11.40
2023-10-27T16:44:35.630Z,11.30
2023-10-27T16:47:02.760Z,11.30
2023-10-27T16:49:31.754Z,11.30
2023-10-27T16:51:58.961Z,11.20
2023-10-27T16:54:27.118Z,11.10
2023-10-27T16:56:56.326Z,11.00
2023-10-27T16:59:23.455Z,11.10
2023-10-27T17:01:50.780Z,11.10
2023-10-27T17:04:17.812Z,11.10
2023-10-27T17:06:48.297Z,11.10
2023-10-27T17:09:15.642Z,11.10
2023-10-27T17:11:44.027Z,11.10
2023-10-27T17:14:11.045Z,11.00
2023-10-27T17:16:38.333Z,11.00
2023-10-27T17:19:05.690Z,11.00
2023-10-27T17:21:33.509Z,11.00
2023-10-27T17:24:03.078Z,11.00
2023-10-27T17:26:35.080Z,11.10
2023-10-27T17:29:04.341Z,11.10
2023-10-27T17:31:31.643Z,11.10
2023-10-27T17:34:07.577Z,11.10
2023-10-27T17:36:43.164Z,11.00
2023-10-27T17:39:11.874Z,11.00
2023-10-27T17:41:38.910Z,11.10
2023-10-27T17:44:16.465Z,11.20
2023-10-27T17:46:54.809Z,11.10
2023-10-27T17:49:22.712Z,11.10
2023-10-27T17:51:56.622Z,11.00
2023-10-27T17:54:26.917Z,10.90
2023-10-27T17:56:53.849Z,11.00
2023-10-27T17:59:22.257Z,11.00
2023-10-27T18:01:52.277Z,11.10
2023-10-27T18:04:20.446Z,11.10
2023-10-27T18:06:47.953Z,11.10
2023-10-27T18:09:15.303Z,10.90
2023-10-27T18:11:45.020Z,10.80
2023-10-27T18:14:13.687Z,10.70
2023-10-27T18:16:43.410Z,10.50
2023-10-27T18:19:11.863Z,10.60
2023-10-27T18:21:44.802Z,10.70
2023-10-27T18:24:13.145Z,10.60
2023-10-27T18:26:41.219Z,10.70
2023-10-27T18:29:10.181Z,10.80
2023-10-27T18:31:38.490Z,10.80
2023-10-27T18:34:06.573Z,10.80
2023-10-27T18:36:34.179Z,10.70
2023-10-27T18:39:01.618Z,10.50
2023-10-27T18:41:31.473Z,10.40
2023-10-27T18:43:58.598Z,10.40
2023-10-27T18:46:25.993Z,10.40
2023-10-27T18:48:56.258Z,10.40
2023-10-27T18:51:23.914Z,10.30
2023-10-27T18:53:50.844Z,10.30
2023-10-27T18:56:20.835Z,10.30
2023-10-27T18:58:48.227Z,10.30
2023-10-27T19:01:15.820Z,10.20
2023-10-27T19:03:47.815Z,10.10
2023-10-27T19:06:16.967Z,10.20
2023-10-27T19:08:46.732Z,10.20
2023-10-27T19:11:15.967Z,10.30
2023-10-27T19:13:43.990Z,10.40
2023-10-27T19:16:11.836Z,10.50
2023-10-27T19:18:40.616Z,10.50
2023-10-27T19:21:16.315Z,10.50
2023-10-27T19:23:47.393Z,10.60
2023-10-27T19:26:22.796Z,10.50
2023-10-27T19:28:51.839Z,10.40
2023-10-27T19:34:09.747Z,10.20
2023-10-27T19:36:37.230Z,10.00
2023-10-27T19:39:05.360Z,9.90
2023-10-27T19:41:33.897Z,9.80
2023-10-27T19:44:02.910Z,9.70
2023-10-27T19:46:30.086Z,9.80
2023-10-27T19:48:57.420Z,9.80
2023-10-27T19:51:24.613Z,9.60
2023-10-27T19:53:51.704Z,9.60
2023-10-27T19:56:18.673Z,9.60
2023-10-27T19:58:47.221Z,9.60
2023-10-27T20:01:21.440Z,9.50
2023-10-27T20:03:50.891Z,9.50
2023-10-27T20:06:18.107Z,9.60
2023-10-27T20:08:45.468Z,9.60
2023-10-27T20:11:16.032Z,9.50
2023-10-27T20:13:45.314Z,9.50
2023-10-27T20:16:14.815Z,9.40
2023-10-27T20:18:41.898Z,9.40
2023-10-27T20:21:10.485Z,9.40
2023-10-27T20:23:38.544Z,9.50
2023-10-27T20:26:06.867Z,9.50
2023-10-27T20:28:36.589Z,9.50
2023-10-27T20:31:06.230Z,9.50
2023-10-27T20:33:36.387Z,9.40
2023-10-27T20:36:07.326Z,9.30
2023-10-27T20:38:34.651Z,9.40
2023-10-27T20:41:01.782Z,9.20
2023-10-27T20:43:29.506Z,9.20
2023-10-27T20:45:56.877Z,9.20
2023-10-27T20:48:24.345Z,9.10
2023-10-27T20:50:51.279Z,9.10
2023-10-27T20:53:22.897Z,9.10
2023-10-27T20:55:52.496Z,9.00
2023-10-27T20:58:20.725Z,9.00
2023-10-27T21:00:49.401Z,9.00
2023-10-27T21:03:18.991Z,9.00
2023-10-27T21:05:46.133Z,9.00
2023-10-27T21:08:13.562Z,9.00
2023-10-27T21:10:43.201Z,9.10
2023-10-27T21:13:12.018Z,9.10
2023-10-27T21:15:44.668Z,9.00
2023-10-27T21:18:11.743Z,9.00
2023-10-27T21:20:42.003Z,9.00
2023-10-27T21:23:10.623Z,8.90
2023-10-27T21:25:38.197Z,8.90
2023-10-27T21:28:06.788Z,9.00
2023-10-27T21:30:35.322Z,9.00
2023-10-27T21:33:02.501Z,9.10
2023-10-27T21:35:30.467Z,9.10
2023-10-27T21:37:58.499Z,9.10
2023-10-27T21:40:25.693Z,9.10
2023-10-27T21:42:54.106Z,9.20
2023-10-27T21:45:25.421Z,9.30
2023-10-27T21:47:53.705Z,9.40
2023-10-27T21:50:21.052Z,9.50
2023-10-27T21:52:49.322Z,9.20
2023-10-27T21:55:17.537Z,9.00
2023-10-27T21:57:47.952Z,9.00
2023-10-27T22:00:36.971Z,8.90
2023-10-27T22:03:11.989Z,8.90
2023-10-27T22:05:42.822Z,8.90
2023-10-27T22:08:10.068Z,8.80
2023-10-27T22:10:38.886Z,8.80
2023-10-27T22:13:06.147Z,8.80
2023-10-27T22:15:35.795Z,8.80
2023-10-27T22:18:03.071Z,8.80
2023-10-27T22:20:41.215Z,8.70
2023-10-27T22:23:08.232Z,8.80
2023-10-27T22:25:35.575Z,8.70
2023-10-27T22:28:15.635Z,8.70
2023-10-27T22:30:43.459Z,8.70
2023-10-27T22:33:10.734Z,8.70
2023-10-27T22:35:38.437Z,8.60
2023-10-27T22:38:07.916Z,8.70
2023-10-27T22:40:36.159Z,8.70
2023-10-27T22:43:03.226Z,8.60
2023-10-27T22:45:41.255Z,8.60
2023-10-27T22:48:08.508Z,8.60
2023-10-27T22:50:35.533Z,8.50
2023-10-27T22:53:02.583Z,8.60
2023-10-27T22:55:31.987Z,8.60
2023-10-27T22:57:59.469Z,8.50
2023-10-27T23:00:27.397Z,8.50
2023-10-27T23:02:58.505Z,8.50
2023-10-27T23:05:28.371Z,8.50
2023-10-27T23:07:56.817Z,8.50
2023-10-27T23:10:25.753Z,8.40
2023-10-27T23:12:53.712Z,8.50
2023-10-27T23:15:20.755Z,8.50
2023-10-27T23:17:51.266Z,8.40
2023-10-27T23:20:21.189Z,8.40
2023-10-27T23:22:48.625Z,8.40
2023-10-27T23:25:15.652Z,8.40
2023-10-27T23:27:42.622Z,8.40
2023-10-27T23:30:10.126Z,8.40
2023-10-27T23:32:38.431Z,8.30
2023-10-27T23:35:08.929Z,8.20
2023-10-27T23:37:35.973Z,8.30
2023-10-27T23:40:05.289Z,8.30
2023-10-27T23:42:33.100Z,8.30
2023-10-27T23:45:00.156Z,8.20
2023-10-27T23:47:29.519Z,8.20
2023-10-27T23:49:59.702Z,8.20
2023-10-27T23:52:27.486Z,8.30
2023-10-27T23:54:54.634Z,8.30
2023-10-27T23:57:22.350Z,8.30
2023-10-27T23:59:49.326Z,8.30
